Ellensburg, WA

6:25 AM PDT on July 24, 2016 (GMT -0700)
Bowers | | Change Station

Elev 1762 ft 47.03 °N, 120.53 °W | Updated 32 minutes ago

Clear
Clear
50 °F
Feels Like 50 °F
N
4
Wind Variable Wind from NNE

Today
High -- | Low -- °F
--% Chance of Precip.
Yesterday
High -- | Low -- °F
Precip. -- in
Pressure 30.10 in
Visibility 10.0 miles
Clouds Clear
Dew Point 45 °F
Humidity 83%
Rainfall 0.00 in
Snow Depth Not available.
5:32 AM 8:44 PM
Waning Gibbous, 76% visible
METAR KELN 241253Z AUTO 03003KT 10SM CLR 10/07 A3012 RMK AO2 SLP192 T01000072
Pressure 30.10 in
Visibility 10.0 miles
Clouds Clear
Dew Point 45 °F
Humidity 83%
Rainfall 0.00 in
Snow Depth Not available.
5:32 AM 8:44 PM
Waning Gibbous, 76% visible
METAR KELN 241253Z AUTO 03003KT 10SM CLR 10/07 A3012 RMK AO2 SLP192 T01000072

10-Day Weather Forecast

Almanac

Astronomy

Jul. 24, 2016 Rise Set
Actual Time
Civil Twilight
Nautical Twilight
Astronomical Twilight
Moon
Length of Visible Light
Length of Day
Tomorrow will be .
, % of the Moon is Illuminated

Today's Extremes

State Highs State Lows

Community

WunderPhotos

Upload Photos

1,927,057 photos uploaded!

WunderBlog® & News

Nearby

Air Quality

  Air Quality AQ Index Pollutant
Not available.

Snow Depth

Station Depth Elevation

Earthquake Activity

City Distance Mag. Time & Date
Minimum magnitude displayed is 2.5.

Coastal Water Temperatures

Place Temperature

Stations

Nearby Weather Stations

Station Location Temp. Windchill Dew Point Humidity Wind Precip. Elev Updated Type
                   

Watches & Warnings

There are currently no watches in effect.